createdAt,value
2023-04-01T00:00:39.908Z,3.00
2023-04-01T00:04:39.561Z,1.30
2023-04-01T00:08:54.659Z,2.00
2023-04-01T00:13:03.825Z,3.00
2023-04-01T00:17:25.531Z,2.50
2023-04-01T00:21:52.530Z,2.20
2023-04-01T00:25:58.037Z,2.70
2023-04-01T00:33:56.024Z,1.30
2023-04-01T00:38:20.533Z,1.70
2023-04-01T00:42:24.294Z,2.30
2023-04-01T00:46:21.072Z,1.80
2023-04-01T00:50:45.927Z,2.90
2023-04-01T00:55:25.363Z,2.20
2023-04-01T00:59:33.662Z,3.00
2023-04-01T01:03:27.863Z,2.50
2023-04-01T01:07:51.704Z,1.80
2023-04-01T01:12:01.841Z,3.40
2023-04-01T01:16:17.451Z,1.40
2023-04-01T01:20:48.141Z,2.00
2023-04-01T01:24:55.458Z,1.40
2023-04-01T01:29:12.056Z,3.00
2023-04-01T01:33:44.593Z,2.60
2023-04-01T01:37:51.051Z,2.30
2023-04-01T01:41:54.970Z,1.70
2023-04-01T01:46:09.514Z,2.50
2023-04-01T01:50:08.860Z,2.20
2023-04-01T01:54:15.761Z,1.30
2023-04-01T01:58:23.891Z,2.80
2023-04-01T02:02:40.107Z,2.10
2023-04-01T02:07:00.021Z,1.70
2023-04-01T02:11:21.723Z,3.60
2023-04-01T02:15:34.825Z,3.10
2023-04-01T02:19:43.144Z,1.50
2023-04-01T02:23:55.504Z,2.00
2023-04-01T02:28:22.799Z,1.90
2023-04-01T02:32:32.319Z,2.80
2023-04-01T02:37:16.291Z,2.10
2023-04-01T02:41:30.067Z,1.70
2023-04-01T02:45:54.877Z,3.20
2023-04-01T02:50:27.632Z,3.20
2023-04-01T02:54:16.805Z,2.90
2023-04-01T02:58:22.774Z,1.80
2023-04-01T03:02:28.779Z,2.70
2023-04-01T03:06:28.007Z,2.40
2023-04-01T03:10:51.742Z,5.00
2023-04-01T03:14:57.954Z,1.90
2023-04-01T03:19:23.301Z,2.60
2023-04-01T03:23:31.532Z,1.50
2023-04-01T03:27:31.125Z,3.30
2023-04-01T03:31:48.639Z,3.90
2023-04-01T03:36:12.933Z,2.50
2023-04-01T03:40:16.546Z,2.80
2023-04-01T03:44:24.938Z,4.00
2023-04-01T03:48:16.641Z,2.20
2023-04-01T03:52:29.335Z,3.60
2023-04-01T03:56:44.597Z,3.00
2023-04-01T04:01:02.631Z,2.30
2023-04-01T04:05:26.546Z,1.80
2023-04-01T04:09:33.865Z,2.40
2023-04-01T04:13:50.847Z,1.40
2023-04-01T04:17:48.424Z,3.10
2023-04-01T04:22:08.561Z,3.50
2023-04-01T04:26:13.958Z,1.80
2023-04-01T04:29:37.338Z,2.20
2023-04-01T04:33:47.591Z,2.70
2023-04-01T04:37:52.684Z,3.50
2023-04-01T04:42:03.016Z,2.60
2023-04-01T04:46:22.347Z,2.70
2023-04-01T04:50:44.463Z,2.80
2023-04-01T04:54:53.347Z,2.20
2023-04-01T04:59:03.802Z,2.00
2023-04-01T05:03:08.226Z,3.00
2023-04-01T05:07:12.111Z,2.30
2023-04-01T05:11:15.466Z,3.10
2023-04-01T05:15:20.041Z,2.90
2023-04-01T05:19:23.789Z,2.70
2023-04-01T05:23:49.767Z,2.00
2023-04-01T05:27:57.043Z,2.20
2023-04-01T05:32:09.482Z,3.60
2023-04-01T05:36:28.075Z,1.00
2023-04-01T05:40:40.493Z,1.10
2023-04-01T05:45:24.356Z,2.60
2023-04-01T05:49:47.933Z,2.10
2023-04-01T05:54:09.209Z,1.60
2023-04-01T05:58:14.155Z,1.90
2023-04-01T06:02:33.966Z,2.70
2023-04-01T06:06:43.488Z,1.60
2023-04-01T06:10:53.159Z,3.10
2023-04-01T06:15:36.098Z,2.70
2023-04-01T06:19:39.859Z,1.70
2023-04-01T06:23:50.798Z,1.50
2023-04-01T06:27:21.883Z,3.00
2023-04-01T06:31:26.328Z,4.60
2023-04-01T06:36:12.610Z,2.20
2023-04-01T06:40:36.477Z,2.70
2023-04-01T06:44:51.814Z,1.60
2023-04-01T06:49:11.806Z,3.10
2023-04-01T06:53:33.964Z,2.20
2023-04-01T06:57:48.722Z,2.70
2023-04-01T07:01:52.962Z,2.90
2023-04-01T07:05:50.010Z,2.80
2023-04-01T07:09:34.156Z,1.10
2023-04-01T07:13:17.245Z,2.00
2023-04-01T07:17:51.463Z,1.30
2023-04-01T07:21:33.630Z,3.00
2023-04-01T07:25:38.488Z,2.40
2023-04-01T07:28:46.182Z,1.60
2023-04-01T07:32:56.237Z,2.10
2023-04-01T07:36:29.634Z,2.10
2023-04-01T07:40:28.123Z,2.90
2023-04-01T07:44:33.240Z,3.10
2023-04-01T07:48:05.958Z,2.80
2023-04-01T07:51:49.400Z,4.80
2023-04-01T07:55:52.916Z,2.40
2023-04-01T07:59:31.303Z,4.90
2023-04-01T08:03:31.539Z,12.10
2023-04-01T08:07:16.876Z,5.90
2023-04-01T08:10:31.407Z,8.80
2023-04-01T08:14:44.224Z,4.30
2023-04-01T08:18:29.224Z,4.40
2023-04-01T08:21:46.328Z,4.70
2023-04-01T08:25:23.990Z,3.50
2023-04-01T08:29:18.943Z,4.20
2023-04-01T08:33:15.439Z,3.90
2023-04-01T08:36:55.655Z,4.70
2023-04-01T08:40:59.846Z,4.10
2023-04-01T08:44:41.736Z,3.40
2023-04-01T08:48:48.563Z,2.90
2023-04-01T08:56:22.660Z,2.20
2023-04-01T09:00:14.977Z,3.40
2023-04-01T09:04:22.406Z,4.20
2023-04-01T09:08:42.505Z,6.00
2023-04-01T09:13:04.144Z,4.80
2023-04-01T09:18:07.264Z,5.30
2023-04-01T09:21:33.309Z,3.90
2023-04-01T09:25:55.009Z,2.80
2023-04-01T09:30:19.531Z,4.80
2023-04-01T09:34:40.725Z,2.30
2023-04-01T09:42:44.800Z,4.80
2023-04-01T09:47:14.685Z,4.60
2023-04-01T09:50:53.901Z,2.90
2023-04-01T09:54:52.330Z,2.40
2023-04-01T09:58:17.628Z,3.20
2023-04-01T10:02:10.230Z,2.70
2023-04-01T10:06:05.283Z,1.30
2023-04-01T10:09:44.196Z,2.90
2023-04-01T10:13:29.736Z,2.90
2023-04-01T10:25:06.538Z,3.50
2023-04-01T10:29:14.455Z,2.50
2023-04-01T10:33:01.233Z,4.40
2023-04-01T10:36:39.182Z,4.80
2023-04-01T10:40:31.547Z,2.50
2023-04-01T10:44:43.038Z,3.40
2023-04-01T10:48:16.681Z,3.30
2023-04-01T10:52:20.709Z,3.70
2023-04-01T10:56:08.714Z,3.00
2023-04-01T10:59:55.565Z,3.90
2023-04-01T11:03:31.045Z,2.80
2023-04-01T11:06:52.506Z,3.60
2023-04-01T11:10:19.983Z,2.90
2023-04-01T11:17:51.770Z,2.60
2023-04-01T11:21:15.465Z,3.50
2023-04-01T11:25:23.481Z,3.40
2023-04-01T11:29:22.972Z,2.50
2023-04-01T11:33:10.831Z,3.70
2023-04-01T11:36:23.542Z,3.90
2023-04-01T11:40:06.066Z,2.30
2023-04-01T11:43:33.772Z,3.80
2023-04-01T11:47:52.881Z,4.00
2023-04-01T11:52:08.063Z,2.90
2023-04-01T11:55:53.110Z,2.50
2023-04-01T12:00:18.998Z,2.50
2023-04-01T12:04:19.484Z,3.30
2023-04-01T12:08:31.093Z,1.70
2023-04-01T12:12:21.934Z,2.30
2023-04-01T12:16:43.179Z,2.20
2023-04-01T12:20:26.957Z,2.50
2023-04-01T12:24:00.061Z,2.50
2023-04-01T12:27:51.950Z,2.60
2023-04-01T12:31:38.059Z,4.00
2023-04-01T12:35:26.254Z,1.90
2023-04-01T12:39:05.709Z,3.60
2023-04-01T12:43:04.586Z,4.60
2023-04-01T12:46:21.839Z,2.90
2023-04-01T12:50:02.009Z,2.30
2023-04-01T12:53:44.530Z,3.00
2023-04-01T12:58:18.533Z,3.10
2023-04-01T13:02:06.315Z,2.90
2023-04-01T13:06:31.272Z,2.80
2023-04-01T13:10:40.949Z,2.90
2023-04-01T13:14:35.872Z,2.30
2023-04-01T13:18:22.489Z,4.10
2023-04-01T13:22:49.435Z,4.10
2023-04-01T13:26:53.001Z,4.40
2023-04-01T13:30:43.562Z,3.70
2023-04-01T13:34:18.713Z,4.10
2023-04-01T13:38:05.964Z,4.90
2023-04-01T13:42:51.744Z,5.50
2023-04-01T13:47:03.022Z,5.20
2023-04-01T13:51:01.990Z,4.20
2023-04-01T13:55:28.068Z,4.90
2023-04-01T13:59:14.323Z,40.30
2023-04-01T14:03:12.952Z,11.50
2023-04-01T14:07:55.759Z,6.10
2023-04-01T14:12:00.127Z,13.10
2023-04-01T14:16:30.264Z,7.30
2023-04-01T14:20:39.128Z,6.50
2023-04-01T14:25:13.273Z,5.30
2023-04-01T14:29:22.824Z,8.20
2023-04-01T14:34:05.361Z,8.20
2023-04-01T14:38:12.394Z,8.80
2023-04-01T14:42:33.951Z,9.80
2023-04-01T14:46:39.435Z,10.70
2023-04-01T14:50:57.775Z,9.20
2023-04-01T14:55:19.585Z,5.20
2023-04-01T14:59:21.178Z,11.10
2023-04-01T15:03:49.434Z,11.20
2023-04-01T15:07:59.358Z,12.30
2023-04-01T15:11:35.254Z,10.10
2023-04-01T15:15:22.899Z,7.50
2023-04-01T15:19:30.099Z,9.80
2023-04-01T15:23:25.126Z,7.20
2023-04-01T15:27:32.251Z,3.10
2023-04-01T15:31:28.697Z,2.90
2023-04-01T15:35:43.769Z,2.90
2023-04-01T15:39:40.967Z,10.00
2023-04-01T15:44:14.041Z,6.70
2023-04-01T15:49:01.586Z,3.60
2023-04-01T15:52:55.938Z,5.30
2023-04-01T15:56:59.666Z,6.80
2023-04-01T16:00:47.331Z,9.90
2023-04-01T16:05:41.015Z,2.40
2023-04-01T16:10:24.981Z,2.20
2023-04-01T16:14:24.701Z,3.00
2023-04-01T16:18:23.869Z,10.70
2023-04-01T16:22:32.391Z,4.90
2023-04-01T16:26:44.615Z,10.00
2023-04-01T16:31:41.280Z,37.70
2023-04-01T16:36:10.153Z,11.60
2023-04-01T16:40:45.664Z,4.80
2023-04-01T16:44:57.645Z,8.10
2023-04-01T16:49:53.825Z,4.60
2023-04-01T16:54:15.547Z,5.00
2023-04-01T16:58:33.852Z,3.70
2023-04-01T17:02:45.508Z,5.50
2023-04-01T17:07:20.188Z,6.30
2023-04-01T17:11:38.625Z,9.50
2023-04-01T17:16:49.606Z,16.60
2023-04-01T17:21:32.438Z,17.70
2023-04-01T17:26:20.814Z,11.80
2023-04-01T17:30:37.539Z,12.80
2023-04-01T17:35:06.760Z,13.00
2023-04-01T17:39:41.427Z,8.30
2023-04-01T17:43:47.860Z,9.30
2023-04-01T17:48:27.618Z,7.80
2023-04-01T17:52:33.083Z,8.10
2023-04-01T17:56:41.797Z,19.80
2023-04-01T18:01:15.360Z,14.80
2023-04-01T18:05:48.679Z,11.10
2023-04-01T18:10:02.054Z,9.20
2023-04-01T18:14:14.124Z,12.00
2023-04-01T18:18:15.538Z,10.00
2023-04-01T18:22:25.909Z,12.60
2023-04-01T18:26:44.553Z,15.00
2023-04-01T18:31:10.333Z,12.70
2023-04-01T18:35:35.004Z,11.50
2023-04-01T18:39:57.708Z,15.30
2023-04-01T18:44:03.344Z,12.20
2023-04-01T18:48:25.367Z,15.50
2023-04-01T18:52:31.977Z,13.60
2023-04-01T18:57:03.996Z,14.70
2023-04-01T19:01:16.629Z,14.50
2023-04-01T19:05:53.164Z,12.30
2023-04-01T19:10:24.656Z,9.50
2023-04-01T19:14:45.308Z,9.90
2023-04-01T19:19:17.796Z,8.40
2023-04-01T19:23:53.851Z,10.10
2023-04-01T19:28:02.673Z,12.30
2023-04-01T19:32:24.059Z,17.00
2023-04-01T19:37:01.643Z,13.80
2023-04-01T19:41:24.037Z,10.00
2023-04-01T19:46:00.290Z,10.80
2023-04-01T19:50:15.270Z,10.30
2023-04-01T19:54:48.580Z,7.70
2023-04-01T19:59:02.321Z,12.80
2023-04-01T20:03:55.658Z,12.40
2023-04-01T20:08:57.889Z,11.20
2023-04-01T20:13:05.691Z,11.10
2023-04-01T20:17:44.267Z,13.20
2023-04-01T20:22:17.311Z,9.10
2023-04-01T20:26:36.162Z,8.30
2023-04-01T20:30:47.808Z,7.30
2023-04-01T20:35:07.372Z,7.80
2023-04-01T20:39:44.150Z,9.50
2023-04-01T20:44:29.566Z,9.40
2023-04-01T20:48:42.595Z,7.40
2023-04-01T20:53:05.650Z,9.10
2023-04-01T20:57:34.482Z,5.40
2023-04-01T21:01:44.430Z,7.30
2023-04-01T21:06:31.265Z,8.10
2023-04-01T21:11:14.810Z,9.40
2023-04-01T21:15:38.056Z,8.30
2023-04-01T21:19:45.595Z,9.90
2023-04-01T21:24:04.992Z,13.00
2023-04-01T21:28:29.911Z,11.30
2023-04-01T21:32:43.778Z,16.50
2023-04-01T21:37:11.563Z,14.40
2023-04-01T21:41:12.719Z,14.80
2023-04-01T21:45:38.024Z,13.30
2023-04-01T21:50:16.518Z,14.70
2023-04-01T21:54:26.417Z,15.90
2023-04-01T21:59:03.997Z,15.70
2023-04-01T22:03:25.937Z,17.30
2023-04-01T22:07:41.220Z,13.30
2023-04-01T22:12:16.778Z,15.70
2023-04-01T22:16:39.950Z,16.60
2023-04-01T22:21:19.873Z,20.60
2023-04-01T22:26:12.998Z,18.50
2023-04-01T22:30:38.740Z,19.60
2023-04-01T22:35:05.796Z,14.90
2023-04-01T22:39:14.752Z,14.80
2023-04-01T22:43:40.704Z,14.50
2023-04-01T22:48:04.941Z,15.00
2023-04-01T22:52:12.599Z,16.20
2023-04-01T22:56:37.359Z,14.30
2023-04-01T23:00:48.103Z,13.70
2023-04-01T23:04:54.706Z,13.70
2023-04-01T23:09:09.804Z,12.90
2023-04-01T23:13:26.603Z,15.30
2023-04-01T23:18:32.143Z,13.80
2023-04-01T23:23:08.660Z,13.00
2023-04-01T23:27:16.080Z,13.60
2023-04-01T23:31:41.585Z,12.00
2023-04-01T23:36:09.497Z,11.40
2023-04-01T23:40:27.480Z,9.60
2023-04-01T23:44:44.931Z,10.70
2023-04-01T23:49:29.200Z,9.30
2023-04-01T23:53:58.665Z,12.70
2023-04-01T23:58:49.968Z,17.60
